Time;durP1;ratioP1;P1;durP2;ratioP2;P2;SDS_P1;SDS_P2;PMS_P1;PMS_P2;Temp;Humidity;BMP_temperature;BMP_pressure;BME280_temperature;BME280_humidity;BME280_pressure;Samples;Min_cycle;Max_cycle;Signal;HPM_P1;HPM_P2
2024/04/04 00:00:45;;;;;;;0.50;0.50;;;;;;;7.21;55.81;98334.16;4889857;29;20048;-74
2024/04/04 00:03:11;;;;;;;1.20;0.82;;;;;;;7.18;55.87;98327.28;4891047;29;20044;-74
2024/04/04 00:05:37;;;;;;;0.70;0.60;;;;;;;7.05;56.06;98313.75;4892480;29;20076;-71
2024/04/04 00:08:04;;;;;;;1.27;0.70;;;;;;;6.97;56.24;98325.09;4891003;29;20120;-74
2024/04/04 00:10:30;;;;;;;2.80;0.65;;;;;;;7.04;56.06;98339.63;4892361;29;20791;-74
2024/04/04 00:12:58;;;;;;;1.73;0.65;;;;;;;6.90;56.23;98320.06;4887375;29;20057;-74
2024/04/04 00:15:24;;;;;;;0.90;0.60;;;;;;;6.97;55.94;98319.94;4888802;29;20072;-74
2024/04/04 00:17:50;;;;;;;1.40;0.55;;;;;;;7.00;56.38;98338.84;4890544;29;20108;-73
2024/04/04 00:20:16;;;;;;;0.60;0.60;;;;;;;7.01;56.27;98334.50;4857650;29;20412;-72
2024/04/04 00:22:43;;;;;;;0.60;0.50;;;;;;;7.09;56.16;98356.78;4888424;29;20047;-72
2024/04/04 00:25:09;;;;;;;0.73;0.55;;;;;;;7.01;56.11;98342.28;4860254;29;20171;-73
2024/04/04 00:27:36;;;;;;;1.17;0.60;;;;;;;7.02;55.92;98354.31;4888292;29;20037;-73
2024/04/04 00:30:02;;;;;;;0.70;0.52;;;;;;;6.80;56.34;98333.16;4888228;29;20059;-73
2024/04/04 00:32:33;;;;;;;1.10;0.80;;;;;;;6.84;56.28;98348.59;4856637;29;20040;-71
2024/04/04 00:35:00;;;;;;;0.77;0.60;;;;;;;6.65;56.43;98323.94;4887158;29;20064;-72
2024/04/04 00:37:27;;;;;;;1.05;0.60;;;;;;;6.87;56.62;98361.47;4874080;29;20052;-71
2024/04/04 00:39:53;;;;;;;0.88;0.70;;;;;;;6.76;56.52;98345.28;4856625;29;20120;-72
2024/04/04 00:42:20;;;;;;;0.88;0.70;;;;;;;6.86;56.65;98367.53;4875126;29;20040;-71
2024/04/04 00:44:46;;;;;;;0.80;0.80;;;;;;;6.46;55.94;98309.56;4888195;29;20044;-71
2024/04/04 00:47:12;;;;;;;1.10;0.70;;;;;;;6.86;56.77;98380.47;4890935;29;20526;-72
2024/04/04 00:49:38;;;;;;;1.45;0.70;;;;;;;6.87;56.29;98377.00;4888636;29;20072;-71
2024/04/04 00:52:09;;;;;;;2.85;0.60;;;;;;;6.67;56.49;98355.78;4887775;29;20040;-70
2024/04/04 00:54:42;;;;;;;3.85;0.88;;;;;;;6.27;56.44;98313.31;4887703;29;20055;-72
2024/04/04 00:57:09;;;;;;;0.65;0.52;;;;;;;6.63;56.31;98379.09;4888333;29;20416;-70
2024/04/04 00:59:39;;;;;;;4.75;0.60;;;;;;;6.53;55.81;98390.44;4888316;29;20143;-72
2024/04/04 01:02:05;;;;;;;1.50;0.70;;;;;;;6.58;56.27;98406.75;4887945;29;20385;-71
2024/04/04 01:04:31;;;;;;;0.70;0.70;;;;;;;6.47;56.07;98378.47;4871361;29;20052;-72
2024/04/04 01:06:58;;;;;;;0.60;0.60;;;;;;;6.47;56.08;98404.31;4888752;29;20045;-72
2024/04/04 01:09:24;;;;;;;1.13;0.65;;;;;;;6.43;56.48;98404.38;4887712;29;20474;-70
2024/04/04 01:11:50;;;;;;;0.93;0.60;;;;;;;6.37;56.63;98401.88;4887434;29;20048;-72
2024/04/04 01:14:24;;;;;;;2.03;0.65;;;;;;;6.50;56.74;98420.66;4886926;29;20052;-70
2024/04/04 01:16:50;;;;;;;1.15;0.70;;;;;;;6.50;56.72;98416.34;4886765;29;20049;-72
2024/04/04 01:19:16;;;;;;;1.00;0.55;;;;;;;6.55;56.79;98416.28;4902384;29;20045;-71
2024/04/04 01:21:42;;;;;;;0.70;0.60;;;;;;;6.58;56.37;98417.06;4886662;29;20045;-72
2024/04/04 01:24:08;;;;;;;3.90;0.60;;;;;;;6.65;56.88;98428.16;4872000;29;20040;-71
2024/04/04 01:26:37;;;;;;;0.80;0.75;;;;;;;6.62;56.65;98423.06;4889157;29;20101;-72
2024/04/04 01:29:03;;;;;;;1.58;0.80;;;;;;;6.51;56.30;98410.28;4886951;29;20049;-71
2024/04/04 01:31:30;;;;;;;4.55;1.27;;;;;;;6.67;56.22;98441.94;4903556;29;20053;-72
2024/04/04 01:33:56;;;;;;;1.38;1.25;;;;;;;6.72;56.33;98447.06;4903325;29;20047;-71
2024/04/04 01:36:22;;;;;;;2.08;1.30;;;;;;;6.61;56.07;98427.38;4871042;29;20574;-72
2024/04/04 01:38:48;;;;;;;2.22;1.10;;;;;;;6.65;56.24;98437.69;4888991;29;20136;-72
2024/04/04 01:41:14;;;;;;;1.30;0.70;;;;;;;6.69;56.39;98453.09;4888745;29;20072;-73
2024/04/04 01:43:40;;;;;;;2.40;0.90;;;;;;;6.61;56.60;98442.88;4888018;29;20075;-72
2024/04/04 01:46:06;;;;;;;3.25;0.80;;;;;;;6.66;56.85;98454.91;4870280;29;20044;-70
2024/04/04 01:48:33;;;;;;;1.05;0.60;;;;;;;6.66;56.12;98466.06;4871049;29;20121;-71
2024/04/04 01:50:58;;;;;;;0.52;0.52;;;;;;;6.65;56.39;98460.94;4887006;29;20709;-71
2024/04/04 01:53:24;;;;;;;0.60;0.60;;;;;;;6.59;56.06;98451.56;4855906;29;20496;-70
2024/04/04 01:55:50;;;;;;;1.98;0.40;;;;;;;6.55;56.44;98455.88;4843002;29;20515;-70
2024/04/04 01:58:16;;;;;;;3.65;1.08;;;;;;;6.62;56.84;98467.84;4887623;29;20048;-71
2024/04/04 02:00:42;;;;;;;0.70;0.50;;;;;;;6.64;56.34;98473.00;4902094;29;20043;-73
2024/04/04 02:03:11;;;;;;;0.65;0.57;;;;;;;6.64;56.57;98473.00;4885951;29;20044;-74
2024/04/04 02:05:37;;;;;;;0.47;0.40;;;;;;;6.48;57.06;98441.38;4885844;29;20059;-71
2024/04/04 02:08:03;;;;;;;0.52;0.50;;;;;;;6.65;56.74;98466.09;4871034;29;20099;-72
2024/04/04 02:10:30;;;;;;;1.35;0.55;;;;;;;6.71;56.92;98478.97;4885946;29;20046;-70
2024/04/04 02:12:58;;;;;;;1.05;0.60;;;;;;;6.77;56.82;98484.03;4888148;29;20044;-70
2024/04/04 02:15:24;;;;;;;2.65;0.70;;;;;;;6.77;56.82;98489.19;4870693;29;20771;-72
2024/04/04 02:17:50;;;;;;;7.43;0.68;;;;;;;6.83;56.59;98490.84;4886408;29;20091;-71
2024/04/04 02:20:16;;;;;;;2.80;0.70;;;;;;;6.75;56.20;98473.72;4887841;29;20068;-71
2024/04/04 02:22:42;;;;;;;0.60;0.60;;;;;;;6.87;56.54;98489.91;4870129;29;20112;-72
2024/04/04 02:25:09;;;;;;;0.73;0.60;;;;;;;6.80;56.49;98473.63;4885873;29;20044;-72
2024/04/04 02:27:35;;;;;;;0.75;0.60;;;;;;;6.95;56.68;98505.34;4887539;29;20053;-72
2024/04/04 02:30:01;;;;;;;3.92;0.82;;;;;;;6.99;56.73;98500.09;4887042;29;20507;-73
2024/04/04 02:32:31;;;;;;;1.55;0.73;;;;;;;6.98;56.62;98488.03;4900963;29;20052;-72
2024/04/04 02:34:57;;;;;;;2.72;0.70;;;;;;;7.01;56.23;98493.16;4885567;29;20099;-72
2024/04/04 02:37:23;;;;;;;1.33;0.85;;;;;;;7.17;56.68;98509.28;4884873;29;20146;-72
2024/04/04 02:39:50;;;;;;;0.85;0.60;;;;;;;7.13;56.63;98497.28;4873655;29;20060;-72
2024/04/04 02:42:16;;;;;;;4.88;0.90;;;;;;;7.05;56.45;98489.66;4869548;29;20040;-72
2024/04/04 02:44:42;;;;;;;0.98;0.75;;;;;;;7.23;56.38;98521.28;4855292;29;20058;-70
2024/04/04 02:47:08;;;;;;;3.10;0.73;;;;;;;6.89;56.19;98467.47;4884851;29;20508;-74
2024/04/04 02:49:34;;;;;;;2.05;0.60;;;;;;;7.23;56.13;98518.69;4871064;29;20048;-74
2024/04/04 02:52:00;;;;;;;1.63;0.55;;;;;;;7.24;55.89;98523.84;4886376;29;20391;-75
2024/04/04 02:54:26;;;;;;;1.75;0.70;;;;;;;7.24;56.64;98526.41;4885495;29;20044;-72
2024/04/04 02:56:52;;;;;;;3.03;0.70;;;;;;;7.21;56.02;98525.63;4886438;29;20036;-73
2024/04/04 02:59:19;;;;;;;0.88;0.77;;;;;;;7.14;56.24;98521.41;4871572;29;20641;-73
2024/04/04 03:01:45;;;;;;;4.22;1.10;;;;;;;7.07;56.11;98524.09;4887808;29;20128;-72
2024/04/04 03:04:12;;;;;;;6.15;1.10;;;;;;;7.15;56.36;98538.66;4869415;29;20047;-71
2024/04/04 03:06:38;;;;;;;1.05;0.93;;;;;;;7.02;56.06;98519.88;4870376;29;20048;-71
2024/04/04 03:09:07;;;;;;;6.15;0.90;;;;;;;7.07;56.25;98547.38;4884675;29;20053;-74
2024/04/04 03:11:34;;;;;;;2.20;0.90;;;;;;;7.06;56.97;98537.91;4887927;29;20047;-70
2024/04/04 03:14:00;;;;;;;3.22;1.05;;;;;;;7.20;56.38;98534.25;4884633;29;20048;-71
2024/04/04 03:16:26;;;;;;;1.38;0.75;;;;;;;7.19;56.47;98538.56;4887561;29;20104;-73
2024/04/04 03:18:52;;;;;;;1.58;0.80;;;;;;;7.18;56.56;98533.44;4871425;29;20100;-72
2024/04/04 03:21:18;;;;;;;1.65;0.90;;;;;;;7.22;56.28;98548.03;4856140;29;20745;-71
2024/04/04 03:23:44;;;;;;;3.45;0.88;;;;;;;7.34;56.21;98559.94;4889814;29;20517;-71
2024/04/04 03:26:10;;;;;;;3.25;1.20;;;;;;;7.31;56.58;98557.38;4887848;29;20127;-71
2024/04/04 03:28:36;;;;;;;3.88;1.50;;;;;;;7.21;56.23;98546.31;4900521;29;20052;-72
2024/04/04 03:31:02;;;;;;;4.97;1.02;;;;;;;7.28;56.04;98565.19;4884682;29;20102;-76
2024/04/04 03:33:28;;;;;;;3.10;1.08;;;;;;;7.36;56.26;98578.88;4869619;29;20048;-71
2024/04/04 03:35:55;;;;;;;2.78;1.00;;;;;;;7.38;56.25;98574.53;4884355;29;20040;-71
2024/04/04 03:38:21;;;;;;;4.40;1.27;;;;;;;7.33;56.27;98563.41;4862966;29;20726;-73
2024/04/04 03:40:54;;;;;;;1.85;1.10;;;;;;;7.41;56.53;98569.28;4849052;29;20041;-73
2024/04/04 03:43:22;;;;;;;3.63;1.15;;;;;;;7.37;56.50;98567.66;4880344;29;20407;-72
2024/04/04 03:45:49;;;;;;;5.63;0.93;;;;;;;7.35;56.43;98566.81;4879153;29;20049;-71
2024/04/04 03:48:18;;;;;;;9.55;1.63;;;;;;;7.35;56.29;98559.06;4881628;29;20121;-70
2024/04/04 03:50:45;;;;;;;4.45;0.93;;;;;;;7.43;56.26;98575.31;4883841;29;20040;-69
2024/04/04 03:53:12;;;;;;;1.08;0.93;;;;;;;7.44;56.11;98579.59;4883618;29;20144;-70
2024/04/04 03:55:41;;;;;;;2.13;0.90;;;;;;;7.39;56.13;98576.25;4867941;29;20539;-70
2024/04/04 03:58:09;;;;;;;3.38;1.15;;;;;;;7.41;56.45;98582.22;4884046;29;20053;-71
2024/04/04 04:00:35;;;;;;;4.60;1.10;;;;;;;7.34;56.21;98578.06;4883677;29;20074;-73
2024/04/04 04:03:01;;;;;;;1.40;0.75;;;;;;;7.38;56.43;98595.25;4882951;29;20041;-69
2024/04/04 04:05:27;;;;;;;1.42;0.70;;;;;;;7.20;56.19;98565.31;4869141;29;20045;-79
2024/04/04 04:07:53;;;;;;;1.15;0.70;;;;;;;7.08;56.38;98550.81;4883704;29;20055;-71
2024/04/04 04:10:20;;;;;;;3.72;0.70;;;;;;;7.18;56.04;98574.81;4884213;29;20200;-80
2024/04/04 04:12:46;;;;;;;2.53;0.80;;;;;;;7.31;56.32;98593.63;4871928;29;21577;-70
2024/04/04 04:15:12;;;;;;;2.58;1.10;;;;;;;7.33;56.27;98600.47;4854767;29;20069;-73
2024/04/04 04:17:39;;;;;;;1.70;0.80;;;;;;;7.32;56.42;98609.09;4871095;29;20041;-74
2024/04/04 04:21:17;;;;;;;3.92;1.10;;;;;;;7.23;56.53;98604.94;4885663;29;20048;-74
2024/04/04 04:22:51;;;;;;;2.17;0.95;;;;;;;7.22;56.70;98608.38;4882975;29;20117;-73
2024/04/04 04:25:17;;;;;;;1.05;0.90;;;;;;;7.19;57.27;98608.44;4882559;29;20445;-74
2024/04/04 04:27:43;;;;;;;1.85;0.80;;;;;;;7.09;57.46;98597.34;4870082;29;20033;-74
2024/04/04 04:30:10;;;;;;;1.10;0.80;;;;;;;7.06;57.67;98597.38;4868739;29;20420;-74
2024/04/04 04:32:36;;;;;;;1.17;0.50;;;;;;;7.16;57.68;98611.09;4884736;29;20046;-75
2024/04/04 04:35:03;;;;;;;0.50;0.40;;;;;;;7.16;57.86;98620.56;4869085;29;20056;-74
2024/04/04 04:37:29;;;;;;;1.08;0.70;;;;;;;7.14;57.80;98628.34;4845139;29;20037;-75
2024/04/04 04:39:55;;;;;;;2.97;0.60;;;;;;;7.19;58.34;98626.53;4855789;29;20045;-74
2024/04/04 04:42:21;;;;;;;0.60;0.60;;;;;;;7.30;58.14;98628.97;4869222;29;20041;-75
2024/04/04 04:44:48;;;;;;;1.08;0.60;;;;;;;7.30;58.20;98613.44;4869248;29;20104;-74
2024/04/04 04:47:14;;;;;;;0.70;0.70;;;;;;;7.24;57.89;98583.34;4869359;29;20041;-75
2024/04/04 04:49:40;;;;;;;0.88;0.60;;;;;;;7.58;57.65;98631.16;4823381;29;20056;-73
2024/04/04 04:52:10;;;;;;;0.80;0.70;;;;;;;7.70;57.73;98645.66;4872666;29;20059;-74
2024/04/04 04:54:37;;;;;;;1.20;0.80;;;;;;;7.76;57.64;98642.97;4859988;29;20045;-74
2024/04/04 04:57:03;;;;;;;1.10;0.80;;;;;;;7.72;57.33;98638.72;4870419;29;20101;-75
2024/04/04 04:59:29;;;;;;;1.20;0.68;;;;;;;7.72;57.32;98628.38;4869715;29;20040;-74
2024/04/04 05:01:55;;;;;;;1.75;0.85;;;;;;;8.01;57.24;98663.31;4872285;29;20052;-73
2024/04/04 05:04:25;;;;;;;1.25;0.80;;;;;;;7.79;57.01;98614.44;4868834;29;20045;-73
2024/04/04 05:06:52;;;;;;;1.40;1.00;;;;;;;8.00;56.49;98651.22;4840876;29;20044;-74
2024/04/04 05:09:19;;;;;;;0.95;0.85;;;;;;;8.20;56.78;98669.00;4869088;29;20124;-73
2024/04/04 05:11:45;;;;;;;1.55;1.08;;;;;;;8.10;56.42;98652.78;4857477;29;20152;-73
2024/04/04 05:14:12;;;;;;;1.10;1.00;;;;;;;8.17;56.22;98676.00;4868792;29;20053;-73
2024/04/04 05:16:41;;;;;;;2.08;0.70;;;;;;;8.13;56.06;98670.84;4868229;29;20560;-75
2024/04/04 05:19:08;;;;;;;1.25;0.80;;;;;;;7.97;56.26;98665.06;4870572;29;20501;-74
2024/04/04 05:21:35;;;;;;;1.00;0.90;;;;;;;7.86;56.17;98653.16;4867799;29;20513;-74
2024/04/04 05:24:01;;;;;;;0.90;0.70;;;;;;;7.96;55.86;98676.31;4852753;29;20048;-75
2024/04/04 05:26:28;;;;;;;2.30;0.70;;;;;;;7.78;55.74;98664.53;4837435;29;20060;-73
2024/04/04 05:28:55;;;;;;;0.90;0.70;;;;;;;7.70;55.81;98679.31;4868155;29;20042;-74
2024/04/04 05:31:22;;;;;;;0.73;0.63;;;;;;;7.78;56.07;98712.88;4868268;29;20140;-73
2024/04/04 05:33:49;;;;;;;1.42;0.60;;;;;;;7.77;55.91;98717.19;4868579;29;20048;-72
2024/04/04 05:36:15;;;;;;;1.35;0.90;;;;;;;7.69;56.21;98708.69;4853131;29;20115;-74
2024/04/04 05:38:41;;;;;;;0.70;0.70;;;;;;;7.77;56.07;98722.38;4902814;29;20055;-73
2024/04/04 05:41:09;;;;;;;0.80;0.70;;;;;;;7.84;56.12;98716.22;4900872;29;20041;-74
2024/04/04 05:43:35;;;;;;;0.75;0.73;;;;;;;7.86;55.99;98721.38;4902207;29;20079;-73
2024/04/04 05:46:03;;;;;;;2.30;0.88;;;;;;;7.99;55.61;98728.06;4885105;29;20057;-75
2024/04/04 05:48:29;;;;;;;1.17;0.82;;;;;;;7.94;55.58;98727.31;4870738;29;20040;-74
2024/04/04 05:51:03;;;;;;;2.05;1.05;;;;;;;7.91;55.60;98723.91;4884802;29;20472;-73
2024/04/04 05:53:30;;;;;;;1.20;1.10;;;;;;;7.90;55.65;98717.88;4885186;29;20040;-74
2024/04/04 05:55:57;;;;;;;1.27;0.90;;;;;;;7.92;55.17;98723.03;4855442;29;20487;-74
2024/04/04 05:58:23;;;;;;;2.15;0.90;;;;;;;8.00;55.38;98739.31;4854921;29;20122;-74
2024/04/04 06:00:51;;;;;;;1.25;0.75;;;;;;;7.94;55.03;98729.03;4885256;29;20529;-74
2024/04/04 06:03:17;;;;;;;3.03;0.77;;;;;;;8.09;55.24;98746.09;4887723;29;20037;-74
2024/04/04 06:05:43;;;;;;;2.97;1.15;;;;;;;8.23;55.10;98751.06;4887302;29;20051;-77
2024/04/04 06:08:10;;;;;;;1.25;0.77;;;;;;;8.24;54.83;98735.47;4869840;29;20045;-74
2024/04/04 06:10:37;;;;;;;0.60;0.60;;;;;;;8.57;54.81;98763.47;4884982;29;20049;-74
2024/04/04 06:13:04;;;;;;;1.70;1.00;;;;;;;8.68;54.50;98758.97;4869974;29;20045;-74
2024/04/04 06:15:30;;;;;;;2.97;0.80;;;;;;;8.77;54.34;98734.59;4887130;29;20055;-77
2024/04/04 06:17:57;;;;;;;0.80;0.70;;;;;;;9.02;53.71;98775.66;4871486;29;20095;-75
2024/04/04 06:20:23;;;;;;;0.80;0.77;;;;;;;8.86;53.00;98762.09;4884787;29;20132;-74
2024/04/04 06:22:50;;;;;;;1.27;0.70;;;;;;;8.63;53.01;98758.19;4885152;29;20063;-74
2024/04/04 06:25:17;;;;;;;5.30;0.68;;;;;;;8.60;52.71;98786.75;4884543;29;20607;-72
2024/04/04 06:27:43;;;;;;;3.00;0.80;;;;;;;8.44;52.61;98786.13;4885036;29;20054;-73
2024/04/04 06:30:09;;;;;;;1.10;0.73;;;;;;;8.35;52.34;98771.56;4886308;29;20048;-74
2024/04/04 06:32:36;;;;;;;3.25;0.80;;;;;;;8.42;52.03;98780.09;4902752;29;20064;-75
2024/04/04 06:35:03;;;;;;;3.55;0.90;;;;;;;8.53;52.14;98796.38;4884563;29;20048;-76
2024/04/04 06:37:31;;;;;;;4.13;0.90;;;;;;;8.54;51.76;98794.63;4900255;29;20052;-76
2024/04/04 06:39:58;;;;;;;4.55;0.93;;;;;;;8.66;51.84;98801.34;4901652;29;20055;-74
2024/04/04 06:42:24;;;;;;;5.03;0.77;;;;;;;8.73;51.61;98819.38;4887270;29;20093;-73
2024/04/04 06:44:51;;;;;;;5.90;1.02;;;;;;;8.70;51.49;98814.28;4887562;29;20372;-74
2024/04/04 06:47:17;;;;;;;1.42;0.85;;;;;;;8.69;51.07;98812.56;4854792;29;20572;-73
2024/04/04 06:49:43;;;;;;;2.55;0.98;;;;;;;8.80;51.02;98814.09;4884891;29;20068;-73
2024/04/04 06:52:09;;;;;;;3.50;1.10;;;;;;;9.07;50.34;98836.09;4889952;29;20127;-73
2024/04/04 06:54:38;;;;;;;0.95;0.80;;;;;;;9.17;50.05;98836.78;4886276;29;20044;-74
2024/04/04 06:57:04;;;;;;;1.33;0.70;;;;;;;9.03;49.25;98830.09;4892592;29;20044;-74
2024/04/04 06:59:30;;;;;;;2.00;1.15;;;;;;;8.97;49.93;98832.81;4886537;29;20085;-74
2024/04/04 07:01:56;;;;;;;3.47;0.70;;;;;;;8.82;49.68;98830.50;4885288;29;20047;-74
2024/04/04 07:04:22;;;;;;;4.05;1.00;;;;;;;8.54;49.44;98802.41;4899548;29;20045;-75
2024/04/04 07:06:48;;;;;;;3.92;0.98;;;;;;;8.75;49.60;98845.31;4885407;29;20044;-74
2024/04/04 07:09:15;;;;;;;15.85;7.72;;;;;;;8.84;49.82;98854.66;4885522;29;20104;-74
2024/04/04 07:11:41;;;;;;;5.72;2.95;;;;;;;8.78;49.57;98840.06;4884680;29;20171;-73
2024/04/04 07:14:07;;;;;;;12.18;7.18;;;;;;;9.16;49.26;98864.50;4884276;29;20051;-74
2024/04/04 07:16:33;;;;;;;1.85;0.85;;;;;;;9.54;48.85;98861.19;4884743;29;20044;-74
2024/04/04 07:18:59;;;;;;;1.15;0.80;;;;;;;9.72;48.25;98849.59;4885367;29;20048;-73
2024/04/04 07:21:25;;;;;;;3.95;1.73;;;;;;;9.92;47.79;98873.41;4873380;29;20048;-73
2024/04/04 07:23:51;;;;;;;8.60;2.47;;;;;;;10.09;47.86;98874.78;4888687;29;20037;-74
2024/04/04 07:26:17;;;;;;;6.00;1.42;;;;;;;10.17;46.55;98826.09;4873755;29;20063;-73
2024/04/04 07:28:43;;;;;;;2.28;1.10;;;;;;;10.37;46.51;98866.38;4904164;29;20045;-75
2024/04/04 07:31:09;;;;;;;4.55;0.82;;;;;;;10.10;46.48;98850.50;4888711;29;20060;-73
2024/04/04 07:33:35;;;;;;;1.77;0.75;;;;;;;10.02;46.00;98878.44;4873046;29;20036;-72
2024/04/04 07:36:01;;;;;;;4.53;1.10;;;;;;;10.08;46.54;98880.88;4903871;29;20080;-73
2024/04/04 07:38:27;;;;;;;5.15;1.05;;;;;;;10.07;47.16;98889.56;4871101;29;20792;-74
2024/04/04 07:40:53;;;;;;;1.65;0.90;;;;;;;10.24;46.49;98886.59;4874834;29;20165;-73
2024/04/04 07:43:19;;;;;;;3.30;0.80;;;;;;;10.43;46.21;98884.47;4874389;29;20139;-73
2024/04/04 07:45:45;;;;;;;4.88;1.13;;;;;;;10.73;46.53;98889.00;4872076;29;20539;-73
2024/04/04 07:48:15;;;;;;;1.65;0.85;;;;;;;10.77;45.45;98881.06;4887677;29;20143;-73
2024/04/04 07:50:42;;;;;;;6.40;0.77;;;;;;;10.72;45.49;98882.09;4870821;29;20172;-71
2024/04/04 07:53:08;;;;;;;1.88;1.00;;;;;;;10.51;45.03;98900.75;4875531;29;20049;-75
2024/04/04 07:55:35;;;;;;;5.72;1.05;;;;;;;10.02;45.10;98922.59;4873819;29;20135;-73
2024/04/04 07:58:02;;;;;;;4.80;1.00;;;;;;;9.71;45.58;98915.41;4874317;29;20083;-74
2024/04/04 08:00:29;;;;;;;2.92;0.95;;;;;;;9.41;45.70;98905.59;4854299;29;20045;-74
2024/04/04 08:02:55;;;;;;;5.85;0.80;;;;;;;9.21;46.05;98920.66;4873663;29;20049;-75
2024/04/04 08:05:21;;;;;;;0.77;0.60;;;;;;;8.86;46.69;98930.75;4873077;29;20159;-74
2024/04/04 08:07:48;;;;;;;0.55;0.47;;;;;;;8.58;47.25;98944.13;4859949;29;20400;-72
2024/04/04 08:10:15;;;;;;;0.70;0.52;;;;;;;8.55;48.31;98952.81;4871290;29;20401;-74
2024/04/04 08:12:43;;;;;;;1.92;0.70;;;;;;;8.62;48.82;98940.59;4857299;29;20061;-75
2024/04/04 08:15:12;;;;;;;0.80;0.80;;;;;;;8.91;49.49;98947.09;4872236;29;20118;-74
2024/04/04 08:17:41;;;;;;;5.45;0.80;;;;;;;9.20;49.54;98935.38;4854406;29;20390;-74
2024/04/04 08:20:15;;;;;;;6.47;0.70;;;;;;;9.57;48.98;98942.53;4873427;29;20075;-73
2024/04/04 08:22:46;;;;;;;3.10;0.65;;;;;;;9.98;48.44;98952.13;4887427;29;20051;-73
2024/04/04 08:25:16;;;;;;;3.53;0.70;;;;;;;10.12;47.89;98944.91;4887853;29;20452;-74
2024/04/04 08:27:44;;;;;;;1.25;0.70;;;;;;;9.93;47.90;98936.66;4874214;29;20055;-73
2024/04/04 08:30:11;;;;;;;1.52;0.73;;;;;;;9.98;47.21;98937.38;4857445;29;20041;-73
2024/04/04 08:32:38;;;;;;;4.32;0.80;;;;;;;10.37;47.13;98960.00;4873083;29;20096;-75
2024/04/04 08:35:06;;;;;;;2.63;0.60;;;;;;;10.17;46.38;98947.41;4885350;29;20041;-72
2024/04/04 08:37:33;;;;;;;2.47;0.90;;;;;;;10.07;46.88;98967.53;4854834;29;20056;-75
2024/04/04 08:40:00;;;;;;;2.22;1.15;;;;;;;9.98;46.92;98967.72;4885196;29;20041;-75
2024/04/04 08:42:27;;;;;;;4.18;1.13;;;;;;;9.68;46.95;98954.44;4885540;29;20075;-74
2024/04/04 08:44:53;;;;;;;1.35;0.90;;;;;;;9.52;46.74;98966.84;4885730;29;20093;-74
2024/04/04 08:47:24;;;;;;;5.25;0.77;;;;;;;9.49;46.90;98984.19;4847933;29;20047;-69
2024/04/04 08:49:52;;;;;;;1.98;0.77;;;;;;;9.36;47.31;98964.53;4859714;29;20063;-75
2024/04/04 08:52:19;;;;;;;1.10;0.70;;;;;;;9.64;48.13;98980.47;4872587;29;20061;-72
2024/04/04 08:54:45;;;;;;;5.82;0.90;;;;;;;9.92;48.37;98974.75;4854696;29;20492;-75
2024/04/04 08:57:11;;;;;;;2.13;0.77;;;;;;;10.41;48.02;98977.28;4854937;29;20068;-75
2024/04/04 08:59:37;;;;;;;1.75;0.80;;;;;;;10.93;47.25;98983.06;4870531;29;20423;-73
2024/04/04 09:02:04;;;;;;;3.65;0.90;;;;;;;11.25;47.16;98976.25;4872983;29;20104;-74
2024/04/04 09:04:31;;;;;;;2.45;0.82;;;;;;;11.39;46.06;98972.44;4871619;29;20098;-75
2024/04/04 09:06:57;;;;;;;4.72;0.80;;;;;;;11.37;45.98;98959.41;4871031;29;20064;-72
2024/04/04 09:09:25;;;;;;;5.32;1.02;;;;;;;11.45;45.22;98969.69;4871519;29;20072;-72
2024/04/04 09:11:51;;;;;;;10.32;0.90;;;;;;;11.34;44.55;98963.88;4855325;29;20040;-73
2024/04/04 09:14:17;;;;;;;3.13;0.82;;;;;;;11.25;44.46;98975.38;4871634;29;20060;-76
2024/04/04 09:16:44;;;;;;;5.18;1.20;;;;;;;11.17;44.09;98985.09;4854843;29;20064;-71
2024/04/04 09:19:18;;;;;;;2.58;1.33;;;;;;;11.14;43.75;98960.84;4870580;29;20124;-74
2024/04/04 09:21:45;;;;;;;10.77;2.20;;;;;;;11.09;43.88;98980.09;4869789;29;20114;-74
2024/04/04 09:24:16;;;;;;;15.43;10.10;;;;;;;11.02;43.98;98984.59;4852974;29;20057;-72
2024/04/04 09:26:43;;;;;;;11.20;5.10;;;;;;;10.74;43.91;98959.22;4868543;29;20041;-75
2024/04/04 09:29:14;;;;;;;6.10;3.15;;;;;;;10.71;43.85;98990.50;4869535;29;20045;-73
2024/04/04 09:31:41;;;;;;;10.15;2.30;;;;;;;10.36;43.98;98989.50;4869638;29;20037;-72
2024/04/04 09:34:10;;;;;;;6.30;2.03;;;;;;;10.00;44.22;98977.19;4884749;29;20081;-73
2024/04/04 09:36:39;;;;;;;9.30;3.17;;;;;;;10.03;44.75;99015.28;4854160;29;20049;-75
2024/04/04 09:39:12;;;;;;;6.95;1.90;;;;;;;9.79;44.56;98992.31;4871419;29;20041;-74
2024/04/04 09:41:39;;;;;;;9.32;3.60;;;;;;;9.68;45.19;98983.00;4870601;29;20045;-73
2024/04/04 09:44:06;;;;;;;7.90;2.35;;;;;;;9.91;44.85;99022.41;4869487;29;20064;-73
2024/04/04 09:46:37;;;;;;;5.85;2.15;;;;;;;9.93;44.96;99032.81;4869642;29;20036;-74
2024/04/04 09:49:08;;;;;;;3.35;1.10;;;;;;;9.82;45.12;99004.38;4853730;29;20466;-73
2024/04/04 09:51:37;;;;;;;3.75;2.08;;;;;;;10.05;44.90;99026.50;4854998;29;20093;-74
2024/04/04 09:54:03;;;;;;;2.45;1.30;;;;;;;10.22;45.35;99042.66;4869358;29;20045;-75
2024/04/04 09:56:30;;;;;;;6.32;3.50;;;;;;;10.37;44.99;99045.81;4853171;29;20143;-72
2024/04/04 09:58:57;;;;;;;3.90;2.65;;;;;;;10.46;45.06;99045.69;4869470;29;20041;-74
2024/04/04 10:01:25;;;;;;;6.60;2.50;;;;;;;10.36;44.61;99036.31;4870361;29;20073;-74
2024/04/04 10:03:58;;;;;;;3.10;1.17;;;;;;;10.44;44.42;99044.84;4869241;29;20247;-72
2024/04/04 10:06:40;;;;;;;4.43;1.65;;;;;;;10.41;44.82;99052.72;4869044;29;20045;-74
2024/04/04 10:09:14;;;;;;;3.35;1.52;;;;;;;10.41;44.31;99047.50;4884144;29;20056;-73
2024/04/04 10:11:41;;;;;;;2.88;1.23;;;;;;;10.49;44.46;99052.53;4853835;29;20072;-72
2024/04/04 10:14:21;;;;;;;2.95;1.35;;;;;;;10.53;44.34;99060.25;4852575;29;20065;-74
2024/04/04 10:16:56;;;;;;;5.72;2.47;;;;;;;10.39;44.25;99052.72;4853420;29;20147;-73
2024/04/04 10:19:24;;;;;;;6.78;1.50;;;;;;;10.18;44.26;99029.72;4868233;29;20048;-74
2024/04/04 10:21:55;;;;;;;5.45;1.13;;;;;;;10.34;44.35;99074.47;4868696;29;20136;-71
2024/04/04 10:24:30;;;;;;;8.50;1.40;;;;;;;10.32;44.86;99065.84;4869233;29;20056;-74
2024/04/04 10:26:59;;;;;;;6.18;2.00;;;;;;;10.37;44.66;99082.22;4868908;29;20051;-74
2024/04/04 10:29:30;;;;;;;1.98;1.50;;;;;;;10.24;44.67;99069.47;4852430;29;20617;-72
2024/04/04 10:32:00;;;;;;;3.58;0.88;;;;;;;10.33;44.94;99083.16;4868433;29;20041;-72
2024/04/04 10:34:26;;;;;;;3.60;1.92;;;;;;;10.36;45.13;99078.78;4866595;29;20056;-74
2024/04/04 10:36:52;;;;;;;2.70;2.17;;;;;;;10.49;45.21;99099.38;4844922;29;20052;-73
2024/04/04 10:39:21;;;;;;;4.60;2.83;;;;;;;10.45;45.12;99093.38;4902359;29;20067;-74
2024/04/04 10:41:52;;;;;;;2.53;0.95;;;;;;;10.55;44.58;99099.25;4841477;29;20055;-73
2024/04/04 10:44:19;;;;;;;1.88;0.98;;;;;;;10.44;45.06;99093.41;4870356;29;20045;-73
2024/04/04 10:46:50;;;;;;;3.60;1.83;;;;;;;10.55;44.95;99115.72;4887718;29;20052;-72
2024/04/04 10:49:19;;;;;;;8.90;2.42;;;;;;;10.58;44.52;99106.13;4876651;29;20187;-74
2024/04/04 10:51:56;;;;;;;3.38;1.50;;;;;;;10.49;44.56;99108.00;4889926;29;20850;-73
2024/04/04 10:54:23;;;;;;;6.85;3.88;;;;;;;10.40;44.37;99103.00;4872382;29;20056;-73
2024/04/04 10:56:52;;;;;;;2.63;1.27;;;;;;;10.32;44.67;99104.84;4854617;29;20515;-74
2024/04/04 10:59:19;;;;;;;1.85;0.90;;;;;;;10.28;44.80;99124.00;4888651;29;20056;-73
2024/04/04 11:01:52;;;;;;;2.28;1.10;;;;;;;10.31;44.91;99140.41;4890282;29;20451;-72
2024/04/04 11:04:19;;;;;;;2.05;1.45;;;;;;;10.14;45.49;99114.72;4901884;29;20505;-74
2024/04/04 11:06:48;;;;;;;1.10;0.80;;;;;;;10.24;45.14;99134.47;4873919;29;20071;-72
2024/04/04 11:09:20;;;;;;;4.45;0.98;;;;;;;10.17;45.37;99125.06;4887523;29;20041;-74
2024/04/04 11:11:48;;;;;;;1.45;0.80;;;;;;;10.33;45.77;99156.84;4886276;29;20179;-74
2024/04/04 11:14:17;;;;;;;5.22;1.58;;;;;;;10.36;45.41;99156.81;4871575;29;20480;-74
2024/04/04 11:16:44;;;;;;;4.70;1.42;;;;;;;10.17;45.53;99140.66;4886134;29;20040;-72
2024/04/04 11:19:11;;;;;;;9.23;1.83;;;;;;;10.25;45.38;99151.78;4886413;29;20139;-73
2024/04/04 11:21:38;;;;;;;5.63;1.75;;;;;;;9.91;45.46;99115.97;4886572;29;20039;-74
2024/04/04 11:24:05;;;;;;;2.67;1.23;;;;;;;10.24;45.27;99168.28;4901666;29;20096;-72
2024/04/04 11:26:31;;;;;;;3.67;1.40;;;;;;;9.98;45.76;99171.31;4884821;29;20681;-74
2024/04/04 11:28:58;;;;;;;4.13;1.20;;;;;;;9.78;46.39;99166.44;4888288;29;20052;-74
2024/04/04 11:31:25;;;;;;;2.55;1.13;;;;;;;9.44;46.33;99135.78;4901575;29;20040;-72
2024/04/04 11:33:51;;;;;;;1.27;1.15;;;;;;;9.27;46.67;99144.66;4885402;29;20455;-75
2024/04/04 11:36:17;;;;;;;4.05;1.00;;;;;;;9.23;47.01;99157.72;4885091;29;20530;-74
2024/04/04 11:38:43;;;;;;;1.80;1.00;;;;;;;9.37;47.72;99194.72;4884911;29;20060;-74